首页
METAR-TAF:

METAR-TAF

机场 :

Imperial County Airport (Boley Field)

Imperial, 加利福尼亚州, 美国

纬度: 32-50-03N, 经度: 115-34-43W, 海拔: 17米

METAR: 丢失

时间: 23:26 (07:26 UTC)

预报

该预报发布于1小时和50分钟前的05:36 UTC
预报有效从17日的 06点(UTC)到 18日的 06点(UTC)
风速4节,风向多变
能見度: 10公里
天空无云
从 17日的 2000点(UTC)
风速5节,风向北转西北
能見度: 10公里
少量云层高于25000英尺
从 18日的 0300点(UTC)
风速5节,风向西转西北
能見度: 10公里
少量云层高于25000英尺

TAF: KIPL 170536Z 1706/1806 VRB04KT P6SM SKC FM172000 34005KT P6SM FEW250 FM180300 29005KT P6SM FEW250

超过4000个机场的气象观测和天气预报(METAR&TAF报告)。

可查询的气象台以黄色和红色小点在地图上表示。

将鼠标移到小点上方,可查看气象台名称。

然后点击查看天气观测和预报。

如需切换地图:点击带黑十字的绿色按钮放大地图;点击带横线的绿色按钮缩小地图;或者点击绿色箭头查看邻近地区的地图。


METAR-TAF: